Time;durP1;ratioP1;P1;durP2;ratioP2;P2;SDS_P1;SDS_P2;PMS_P1;PMS_P2;Temp;Humidity;BMP_temperature;BMP_pressure;BME280_temperature;BME280_humidity;BME280_pressure;Samples;Min_cycle;Max_cycle;Signal;HPM_P1;HPM_P2
2022/02/21 00:00:53;;;;;;;97.93;48.83;;;28.50;67.60;;;;;;4930266;29;20231;-44
2022/02/21 00:03:21;;;;;;;131.63;72.97;;;28.50;67.90;;;;;;4946978;29;20032;-43
2022/02/21 00:05:52;;;;;;;140.38;74.10;;;28.50;68.10;;;;;;4947454;29;20107;-42
2022/02/21 00:08:19;;;;;;;133.43;63.72;;;28.40;68.30;;;;;;4947125;29;20035;-42
2022/02/21 00:10:46;;;;;;;104.13;53.30;;;28.40;68.70;;;;;;4947344;29;20035;-47
2022/02/21 00:13:13;;;;;;;130.57;59.00;;;28.40;68.80;;;;;;4946782;29;20059;-40
2022/02/21 00:15:40;;;;;;;131.60;60.38;;;28.40;69.00;;;;;;4947035;29;20028;-40
2022/02/21 00:18:06;;;;;;;114.97;47.17;;;28.40;68.90;;;;;;4946550;29;20016;-42
2022/02/21 00:20:33;;;;;;;95.45;33.45;;;28.40;69.00;;;;;;4946905;29;20031;-41
2022/02/21 00:23:00;;;;;;;80.82;35.00;;;28.40;69.10;;;;;;4946974;29;20215;-50
2022/02/21 00:25:27;;;;;;;71.32;23.85;;;28.30;69.00;;;;;;4946299;29;20071;-44
2022/02/21 00:27:53;;;;;;;73.05;18.45;;;28.30;69.00;;;;;;4963643;29;20326;-47
2022/02/21 00:30:20;;;;;;;40.78;12.20;;;28.30;69.10;;;;;;4965194;29;20031;-38
2022/02/21 00:32:46;;;;;;;35.17;12.27;;;28.20;69.30;;;;;;4958568;29;20023;-38
2022/02/21 00:35:13;;;;;;;48.38;15.23;;;28.20;69.60;;;;;;4955990;29;20111;-45
2022/02/21 00:37:40;;;;;;;84.85;15.32;;;28.20;69.70;;;;;;4951953;29;20029;-38
2022/02/21 00:40:07;;;;;;;71.10;14.38;;;28.20;69.60;;;;;;4946386;29;20031;-39
2022/02/21 00:42:36;;;;;;;129.07;22.50;;;28.20;69.60;;;;;;4946448;29;20032;-39
2022/02/21 00:45:07;;;;;;;59.58;15.40;;;28.20;69.60;;;;;;4928753;29;20075;-48
2022/02/21 00:47:33;;;;;;;47.03;12.32;;;28.10;69.40;;;;;;4945883;29;20027;-41
2022/02/21 00:50:00;;;;;;;38.05;12.55;;;28.10;69.60;;;;;;4946192;29;20036;-41
2022/02/21 00:52:27;;;;;;;29.58;10.75;;;28.10;70.00;;;;;;4949516;29;20038;-40
2022/02/21 00:54:53;;;;;;;39.65;10.85;;;28.10;69.20;;;;;;4949931;29;20024;-42
2022/02/21 00:57:20;;;;;;;41.88;11.75;;;28.10;69.20;;;;;;4957667;29;20232;-41
2022/02/21 00:59:48;;;;;;;59.40;12.38;;;28.00;69.30;;;;;;4959028;29;20031;-42
2022/02/21 01:02:15;;;;;;;40.95;11.80;;;28.00;69.30;;;;;;4960023;29;20015;-41
2022/02/21 01:04:42;;;;;;;25.17;10.93;;;28.00;69.20;;;;;;4941364;29;20040;-41
2022/02/21 01:07:08;;;;;;;30.52;16.13;;;28.00;69.00;;;;;;4959043;29;20051;-41
2022/02/21 01:09:35;;;;;;;37.28;12.93;;;28.00;68.90;;;;;;4959938;29;20066;-41
2022/02/21 01:12:03;;;;;;;50.75;12.82;;;27.90;68.90;;;;;;4959719;29;20398;-41
2022/02/21 01:14:30;;;;;;;41.38;11.93;;;27.90;69.20;;;;;;4962385;29;20222;-43
2022/02/21 01:16:57;;;;;;;48.13;14.25;;;27.90;69.60;;;;;;4957714;29;20047;-41
2022/02/21 01:19:24;;;;;;;61.38;16.98;;;27.80;69.80;;;;;;4958807;29;20070;-40
2022/02/21 01:21:50;;;;;;;53.03;16.13;;;27.80;70.10;;;;;;4941972;29;20331;-41
2022/02/21 01:24:17;;;;;;;56.40;15.68;;;27.80;69.80;;;;;;4957697;29;20062;-41
2022/02/21 01:26:44;;;;;;;55.30;15.00;;;27.80;69.80;;;;;;4959701;29;20031;-41
2022/02/21 01:29:10;;;;;;;39.15;13.75;;;27.70;69.80;;;;;;4941941;29;20233;-39
2022/02/21 01:31:37;;;;;;;54.75;15.18;;;27.70;69.90;;;;;;4950314;29;20020;-42
2022/02/21 01:34:06;;;;;;;40.53;13.57;;;27.70;70.00;;;;;;4953060;29;20365;-44
2022/02/21 01:36:33;;;;;;;32.90;12.30;;;27.70;70.00;;;;;;4969056;29;20038;-46
2022/02/21 01:39:01;;;;;;;78.72;13.55;;;27.60;69.90;;;;;;4968491;29;20015;-43
2022/02/21 01:41:27;;;;;;;63.58;12.57;;;27.60;70.30;;;;;;4951295;29;20039;-44
2022/02/21 01:44:33;;;;;;;48.55;11.75;;;27.60;70.30;;;;;;4968224;29;20046;-41
2022/02/21 01:47:00;;;;;;;27.67;10.50;;;27.60;70.60;;;;;;4957649;29;20058;-40
2022/02/21 01:49:26;;;;;;;34.55;10.75;;;27.60;70.50;;;;;;4967552;28;20238;-41
2022/02/21 01:51:53;;;;;;;33.42;11.10;;;27.60;70.70;;;;;;4960086;29;20020;-40
2022/02/21 01:54:21;;;;;;;28.33;11.30;;;27.60;70.90;;;;;;4958354;29;20030;-42
2022/02/21 01:56:50;;;;;;;42.20;12.02;;;27.60;70.90;;;;;;4955165;29;20055;-45
2022/02/21 01:59:18;;;;;;;30.35;12.15;;;27.50;70.90;;;;;;4960845;29;20275;-43
2022/02/21 02:01:44;;;;;;;24.17;11.75;;;27.50;71.00;;;;;;4957969;29;20025;-44
2022/02/21 02:04:11;;;;;;;33.90;11.63;;;27.50;71.00;;;;;;4957584;28;20018;-44
2022/02/21 02:06:38;;;;;;;37.22;11.93;;;27.50;71.20;;;;;;4940256;29;20038;-49
2022/02/21 02:09:10;;;;;;;33.42;10.55;;;27.50;71.10;;;;;;4958988;29;20023;-39
2022/02/21 02:11:38;;;;;;;35.97;10.60;;;27.40;70.80;;;;;;4959410;29;20031;-46
2022/02/21 02:14:05;;;;;;;27.60;11.63;;;27.50;70.80;;;;;;4956749;29;20043;-42
2022/02/21 02:16:31;;;;;;;52.25;13.30;;;27.40;70.40;;;;;;4958284;29;20039;-40
2022/02/21 02:18:59;;;;;;;31.55;10.73;;;27.40;70.50;;;;;;4958686;29;20042;-41
2022/02/21 02:21:28;;;;;;;29.75;10.07;;;27.40;70.40;;;;;;4957627;29;20035;-42
2022/02/21 02:23:56;;;;;;;23.77;9.70;;;27.40;70.30;;;;;;4957309;29;20319;-41
2022/02/21 02:26:23;;;;;;;17.77;9.23;;;27.40;70.20;;;;;;4959000;29;20075;-49
2022/02/21 02:28:52;;;;;;;36.22;10.90;;;27.40;69.80;;;;;;4957368;29;20019;-41
2022/02/21 02:31:19;;;;;;;53.05;13.77;;;27.40;69.80;;;;;;4940175;29;20043;-47
2022/02/21 02:33:46;;;;;;;32.53;15.32;;;27.40;69.60;;;;;;4958095;29;20315;-40
2022/02/21 02:36:14;;;;;;;24.27;13.55;;;27.40;69.40;;;;;;4958263;29;20038;-43
2022/02/21 02:38:41;;;;;;;28.48;10.90;;;27.40;69.20;;;;;;4956484;29;20027;-39
2022/02/21 02:41:09;;;;;;;45.40;11.02;;;27.40;69.20;;;;;;4958141;29;20031;-44
2022/02/21 02:43:37;;;;;;;51.45;10.95;;;27.40;69.30;;;;;;4957997;29;20327;-41
2022/02/21 02:46:04;;;;;;;44.08;10.63;;;27.40;69.10;;;;;;4957004;29;20039;-39
2022/02/21 02:48:35;;;;;;;39.90;10.30;;;27.40;69.20;;;;;;4957257;29;20090;-45
2022/02/21 02:51:01;;;;;;;40.08;9.30;;;27.40;69.10;;;;;;4958672;29;20079;-42
2022/02/21 02:53:30;;;;;;;43.10;9.63;;;27.40;69.20;;;;;;4957025;29;20038;-40
2022/02/21 02:55:57;;;;;;;28.80;11.68;;;27.40;69.00;;;;;;4956092;29;20059;-41
2022/02/21 02:58:23;;;;;;;35.00;21.58;;;27.40;68.90;;;;;;4955954;29;20118;-40
2022/02/21 03:00:51;;;;;;;35.10;16.73;;;27.40;68.80;;;;;;4957505;29;20023;-41
2022/02/21 03:03:18;;;;;;;44.33;23.15;;;27.40;69.00;;;;;;4957984;29;20027;-43
2022/02/21 03:05:45;;;;;;;37.25;23.52;;;27.40;68.90;;;;;;4953237;29;20039;-40
2022/02/21 03:08:11;;;;;;;34.03;16.20;;;27.40;68.70;;;;;;4956800;29;20263;-45
2022/02/21 03:10:38;;;;;;;49.60;19.02;;;27.40;68.60;;;;;;4956586;29;20027;-47
2022/02/21 03:13:04;;;;;;;37.90;17.85;;;27.40;68.40;;;;;;4957570;29;20039;-44
2022/02/21 03:15:34;;;;;;;31.48;14.93;;;27.40;68.30;;;;;;4955731;28;20031;-39
2022/02/21 03:18:01;;;;;;;34.55;14.18;;;27.40;68.20;;;;;;4948344;29;20083;-45
2022/02/21 03:20:27;;;;;;;24.33;10.88;;;27.40;68.00;;;;;;4952999;29;20070;-40
2022/02/21 03:22:54;;;;;;;29.20;11.15;;;27.50;67.90;;;;;;4947518;29;20338;-43
2022/02/21 03:25:20;;;;;;;29.05;11.18;;;27.40;67.90;;;;;;4947607;29;20027;-41
2022/02/21 03:27:47;;;;;;;35.92;11.75;;;27.40;68.00;;;;;;4947149;29;20031;-44
2022/02/21 03:30:14;;;;;;;38.35;13.18;;;27.40;68.00;;;;;;4947555;29;20315;-43
2022/02/21 03:32:41;;;;;;;57.90;23.30;;;27.50;68.10;;;;;;4930391;29;20038;-46
2022/02/21 03:35:08;;;;;;;45.40;21.13;;;27.50;67.80;;;;;;4957410;29;20031;-42
2022/02/21 03:37:35;;;;;;;53.03;17.70;;;27.50;67.70;;;;;;4966718;29;20023;-42
2022/02/21 03:40:04;;;;;;;53.25;17.13;;;27.50;67.70;;;;;;4965852;29;20035;-42
2022/02/21 03:42:31;;;;;;;63.72;16.50;;;27.50;67.60;;;;;;4956161;29;20034;-47
2022/02/21 03:44:59;;;;;;;61.33;14.93;;;27.50;67.60;;;;;;4956971;29;20032;-43
2022/02/21 03:47:26;;;;;;;40.78;13.55;;;27.50;67.60;;;;;;4954928;29;20024;-40
2022/02/21 03:49:53;;;;;;;47.80;12.65;;;27.50;67.90;;;;;;4956445;29;20070;-40
2022/02/21 03:52:19;;;;;;;51.35;13.60;;;27.40;67.80;;;;;;4957005;29;20032;-42
2022/02/21 03:54:46;;;;;;;51.10;12.02;;;27.50;67.60;;;;;;4932299;29;20066;-39
2022/02/21 03:57:12;;;;;;;34.60;11.60;;;27.50;67.70;;;;;;4946741;29;20059;-40
2022/02/21 03:59:39;;;;;;;49.35;11.75;;;27.50;67.70;;;;;;4947157;29;20090;-46
2022/02/21 04:02:06;;;;;;;34.05;10.77;;;27.50;67.70;;;;;;4946639;29;20027;-41
2022/02/21 04:04:32;;;;;;;35.25;10.25;;;27.50;67.70;;;;;;4955501;29;20035;-41
2022/02/21 04:06:59;;;;;;;31.05;10.70;;;27.40;67.70;;;;;;4965964;29;20038;-42
2022/02/21 04:09:27;;;;;;;29.40;10.43;;;27.40;67.60;;;;;;4955950;29;20034;-39
2022/02/21 04:11:53;;;;;;;24.98;9.32;;;27.40;67.50;;;;;;4956465;29;20066;-45
2022/02/21 04:14:20;;;;;;;28.33;9.50;;;27.40;67.50;;;;;;4966056;29;20214;-40
2022/02/21 04:16:46;;;;;;;28.35;9.00;;;27.40;67.60;;;;;;4965759;29;20034;-46
2022/02/21 04:19:13;;;;;;;20.50;8.77;;;27.40;67.70;;;;;;4965803;29;20308;-41
2022/02/21 04:21:40;;;;;;;17.15;8.75;;;27.40;67.60;;;;;;4966402;29;20035;-40
2022/02/21 04:24:07;;;;;;;19.75;8.27;;;27.40;67.60;;;;;;4965761;29;20311;-41
2022/02/21 04:26:34;;;;;;;18.38;8.43;;;27.40;67.60;;;;;;4965374;28;20114;-41
2022/02/21 04:29:00;;;;;;;14.18;7.95;;;27.40;67.30;;;;;;4965889;29;20074;-42
2022/02/21 04:31:27;;;;;;;21.10;8.55;;;27.40;67.30;;;;;;4966229;29;20272;-49
2022/02/21 04:33:54;;;;;;;21.23;7.93;;;27.40;67.40;;;;;;4965509;29;20039;-43
2022/02/21 04:36:20;;;;;;;30.05;9.20;;;27.30;67.40;;;;;;4965833;29;20041;-45
2022/02/21 04:38:47;;;;;;;23.48;8.82;;;27.40;67.40;;;;;;4965736;29;20338;-45
2022/02/21 04:41:14;;;;;;;23.25;8.73;;;27.30;67.20;;;;;;4959779;29;20098;-40
2022/02/21 04:43:41;;;;;;;24.35;8.25;;;27.30;67.20;;;;;;4954126;29;20252;-41
2022/02/21 04:46:07;;;;;;;38.08;9.05;;;27.30;67.40;;;;;;4965895;29;20075;-40
2022/02/21 04:48:36;;;;;;;36.25;8.30;;;27.30;67.20;;;;;;4965238;29;20051;-42
2022/02/21 04:51:02;;;;;;;27.02;8.25;;;27.30;67.30;;;;;;4965898;29;20059;-42
2022/02/21 04:53:29;;;;;;;65.60;12.00;;;27.30;67.30;;;;;;4965588;29;20035;-39
2022/02/21 04:55:55;;;;;;;162.57;20.85;;;27.30;67.50;;;;;;4965299;29;20031;-40
2022/02/21 04:58:22;;;;;;;150.18;20.60;;;27.30;67.40;;;;;;4965150;29;20042;-41
2022/02/21 05:00:50;;;;;;;103.50;15.48;;;27.30;67.60;;;;;;4965519;29;20024;-41
2022/02/21 05:03:17;;;;;;;39.30;9.63;;;27.30;67.60;;;;;;4965114;29;20257;-45
2022/02/21 05:05:43;;;;;;;39.78;10.73;;;27.20;67.60;;;;;;4965746;29;20102;-43
2022/02/21 05:08:10;;;;;;;48.15;10.43;;;27.20;67.80;;;;;;4948332;29;20049;-40
2022/02/21 05:10:36;;;;;;;35.13;9.75;;;27.20;67.80;;;;;;4965455;29;20102;-41
2022/02/21 05:13:03;;;;;;;34.50;9.52;;;27.20;67.60;;;;;;4965308;29;20039;-41
2022/02/21 05:15:30;;;;;;;23.90;8.48;;;27.20;67.70;;;;;;4965543;29;20203;-40
2022/02/21 05:17:56;;;;;;;22.55;8.98;;;27.20;67.80;;;;;;4965317;29;20038;-39
2022/02/21 05:20:23;;;;;;;23.92;8.50;;;27.20;67.90;;;;;;4965767;29;20098;-42
2022/02/21 05:22:50;;;;;;;25.20;7.68;;;27.20;67.80;;;;;;4965385;29;20023;-39
2022/02/21 05:25:16;;;;;;;18.50;8.15;;;27.20;67.60;;;;;;4965539;29;20027;-44
2022/02/21 05:27:43;;;;;;;30.77;8.70;;;27.20;67.50;;;;;;4964998;29;20134;-44
2022/02/21 05:30:13;;;;;;;20.88;7.88;;;27.20;67.50;;;;;;4965636;29;20033;-41
2022/02/21 05:32:40;;;;;;;16.83;8.15;;;27.20;67.50;;;;;;4965336;29;20031;-41
2022/02/21 05:35:07;;;;;;;15.27;7.57;;;27.20;67.40;;;;;;4965595;29;20030;-40
2022/02/21 05:37:33;;;;;;;24.05;8.23;;;27.20;67.40;;;;;;4965610;28;20030;-42
2022/02/21 05:40:00;;;;;;;17.05;7.97;;;27.20;67.30;;;;;;4968776;29;20031;-43
2022/02/21 05:42:27;;;;;;;79.30;13.52;;;27.20;67.40;;;;;;4969213;29;20323;-41
2022/02/21 05:44:53;;;;;;;48.38;10.52;;;27.20;67.40;;;;;;4968128;29;20401;-39
2022/02/21 05:47:20;;;;;;;29.38;9.10;;;27.20;67.30;;;;;;4966811;29;20098;-43
2022/02/21 05:49:46;;;;;;;27.58;8.23;;;27.20;67.40;;;;;;4966832;29;20042;-41
2022/02/21 05:52:13;;;;;;;26.05;8.15;;;27.20;67.30;;;;;;4949766;29;20214;-40
2022/02/21 05:54:39;;;;;;;21.10;7.68;;;27.20;67.40;;;;;;4966867;29;20031;-43
2022/02/21 05:57:06;;;;;;;21.75;7.85;;;27.20;67.50;;;;;;4966754;29;20070;-42
2022/02/21 05:59:33;;;;;;;19.42;7.32;;;27.20;67.40;;;;;;4966831;29;20015;-46
2022/02/21 06:02:00;;;;;;;19.83;7.63;;;27.20;67.40;;;;;;4968796;29;20031;-41
2022/02/21 06:04:26;;;;;;;15.68;7.57;;;27.20;67.40;;;;;;4968806;28;20038;-41
2022/02/21 06:06:53;;;;;;;13.85;7.07;;;27.20;67.50;;;;;;4968838;29;20027;-41
2022/02/21 06:09:20;;;;;;;12.75;7.00;;;27.10;67.20;;;;;;4968984;29;20026;-40
2022/02/21 06:11:47;;;;;;;16.27;7.63;;;27.20;67.40;;;;;;4968248;29;20124;-41
2022/02/21 06:14:13;;;;;;;12.50;6.93;;;27.20;67.50;;;;;;4968752;29;20236;-40
2022/02/21 06:16:41;;;;;;;16.00;8.00;;;27.10;67.40;;;;;;4951779;29;20252;-42
2022/02/21 06:19:08;;;;;;;13.25;7.78;;;27.10;67.50;;;;;;4968026;29;20082;-43
2022/02/21 06:21:35;;;;;;;14.38;7.18;;;27.10;67.50;;;;;;4969117;29;20015;-41
2022/02/21 06:24:02;;;;;;;9.40;7.00;;;27.10;67.40;;;;;;4968942;29;20215;-41
2022/02/21 06:26:28;;;;;;;13.05;7.57;;;27.10;67.40;;;;;;4951673;29;20348;-45
2022/02/21 06:28:55;;;;;;;13.52;6.88;;;27.10;67.40;;;;;;4968857;29;20390;-43
2022/02/21 06:31:22;;;;;;;9.60;7.05;;;27.10;67.60;;;;;;4969263;29;20038;-41
2022/02/21 06:33:48;;;;;;;9.95;7.20;;;27.10;67.60;;;;;;4968496;29;20031;-43
2022/02/21 06:36:15;;;;;;;11.93;7.03;;;27.10;67.60;;;;;;4968602;29;20313;-47
2022/02/21 06:38:42;;;;;;;11.43;7.05;;;27.10;67.60;;;;;;4968235;29;20023;-40
2022/02/21 06:41:08;;;;;;;12.90;7.32;;;27.10;68.20;;;;;;4968647;29;20027;-48
2022/02/21 06:43:35;;;;;;;11.32;7.40;;;27.10;67.80;;;;;;4968394;29;20259;-42
2022/02/21 06:46:02;;;;;;;11.75;7.28;;;27.10;67.80;;;;;;4968573;29;20026;-40
2022/02/21 06:48:28;;;;;;;8.90;6.80;;;27.10;67.90;;;;;;4968167;28;20039;-40
2022/02/21 06:50:55;;;;;;;13.52;7.10;;;27.10;68.00;;;;;;4968535;29;20027;-39
2022/02/21 06:53:22;;;;;;;9.75;6.63;;;27.10;68.00;;;;;;4968565;29;20079;-40
2022/02/21 06:55:48;;;;;;;8.88;6.38;;;27.10;68.00;;;;;;4967954;29;20215;-40
2022/02/21 06:58:16;;;;;;;8.55;6.82;;;27.10;68.30;;;;;;4968192;29;20035;-43
2022/02/21 07:00:43;;;;;;;10.43;7.28;;;27.10;68.30;;;;;;4968213;29;20110;-40
2022/02/21 07:03:09;;;;;;;13.15;6.70;;;27.10;68.30;;;;;;4968181;29;20046;-40
2022/02/21 07:05:36;;;;;;;10.40;6.15;;;27.10;68.30;;;;;;4968111;29;20023;-41
2022/02/21 07:08:03;;;;;;;10.93;6.80;;;27.10;68.20;;;;;;4967975;29;20035;-42
2022/02/21 07:10:30;;;;;;;10.75;7.18;;;27.00;68.40;;;;;;4968183;29;20274;-41
2022/02/21 07:12:56;;;;;;;14.10;7.22;;;27.10;68.50;;;;;;4967947;29;20099;-42
2022/02/21 07:15:23;;;;;;;11.48;6.63;;;27.10;68.60;;;;;;4968088;29;20055;-40
2022/02/21 07:17:50;;;;;;;11.23;7.07;;;27.10;68.70;;;;;;4967316;29;20035;-40
2022/02/21 07:20:17;;;;;;;12.23;6.60;;;27.10;68.60;;;;;;4968037;29;20025;-43
2022/02/21 07:22:45;;;;;;;10.75;6.95;;;27.10;68.60;;;;;;4967311;29;20020;-42
2022/02/21 07:25:15;;;;;;;12.85;6.82;;;27.10;68.50;;;;;;4967703;29;20031;-40
2022/02/21 07:27:50;;;;;;;10.02;6.78;;;27.10;68.50;;;;;;4967385;29;20219;-40
2022/02/21 07:30:19;;;;;;;8.30;6.85;;;27.10;68.40;;;;;;4967855;29;20053;-41
2022/02/21 07:32:48;;;;;;;9.73;7.35;;;27.10;68.60;;;;;;4967383;29;20054;-40
2022/02/21 07:35:15;;;;;;;10.30;7.05;;;27.10;68.70;;;;;;4967622;29;20090;-42
2022/02/21 07:37:42;;;;;;;11.57;7.50;;;27.10;68.70;;;;;;4967361;29;20355;-44
2022/02/21 07:40:10;;;;;;;10.18;6.80;;;27.00;68.70;;;;;;4967414;29;20027;-46
2022/02/21 07:42:39;;;;;;;14.57;7.18;;;27.10;68.90;;;;;;4967205;29;20039;-44
2022/02/21 07:45:07;;;;;;;15.27;7.18;;;27.00;68.60;;;;;;4967301;29;20258;-41
2022/02/21 07:47:41;;;;;;;12.55;6.68;;;27.00;68.60;;;;;;4967206;29;20039;-40
2022/02/21 07:50:08;;;;;;;10.48;7.30;;;27.00;68.60;;;;;;4967250;29;20179;-41
2022/02/21 07:52:34;;;;;;;10.40;6.28;;;27.00;68.50;;;;;;4967115;29;20039;-49
2022/02/21 07:55:01;;;;;;;10.73;6.55;;;27.00;68.60;;;;;;4967034;29;20135;-42
2022/02/21 07:57:28;;;;;;;13.50;6.90;;;27.00;68.60;;;;;;4966951;29;20342;-44
2022/02/21 07:59:54;;;;;;;12.18;6.43;;;27.00;68.30;;;;;;4966699;28;20110;-43
2022/02/21 08:02:21;;;;;;;10.43;6.30;;;27.00;68.30;;;;;;4966095;29;20160;-43
2022/02/21 08:04:47;;;;;;;12.40;6.43;;;27.00;68.40;;;;;;4966318;29;20042;-45
2022/02/21 08:07:14;;;;;;;10.00;6.30;;;27.00;68.30;;;;;;4966923;29;20027;-41
2022/02/21 08:09:41;;;;;;;9.25;6.32;;;27.00;68.20;;;;;;4966832;29;20039;-42
2022/02/21 08:12:08;;;;;;;8.75;6.20;;;27.00;68.10;;;;;;4967026;29;20038;-42
2022/02/21 08:14:36;;;;;;;8.63;5.63;;;27.00;68.10;;;;;;4966906;29;20027;-43
2022/02/21 08:17:03;;;;;;;8.93;5.85;;;27.00;67.90;;;;;;4966926;29;20035;-43
2022/02/21 08:19:30;;;;;;;10.18;6.30;;;27.00;67.70;;;;;;4966104;28;20098;-40
2022/02/21 08:21:56;;;;;;;11.05;6.07;;;27.00;67.80;;;;;;4966139;29;20051;-40
2022/02/21 08:24:23;;;;;;;9.77;5.70;;;27.00;67.70;;;;;;4966888;28;20206;-41
2022/02/21 08:26:50;;;;;;;8.82;5.72;;;27.00;67.30;;;;;;4966719;29;20276;-40
2022/02/21 08:29:16;;;;;;;8.48;5.97;;;27.00;67.50;;;;;;4966514;29;20271;-47
2022/02/21 08:31:45;;;;;;;9.07;5.65;;;27.00;67.60;;;;;;4966431;29;20019;-40
2022/02/21 08:34:13;;;;;;;8.88;5.80;;;27.00;67.50;;;;;;4966747;29;20038;-44
2022/02/21 08:36:40;;;;;;;8.65;5.78;;;27.00;67.60;;;;;;4966932;29;20034;-40
2022/02/21 08:39:07;;;;;;;11.70;6.22;;;27.00;67.50;;;;;;4966124;29;20023;-42
2022/02/21 08:41:34;;;;;;;9.05;6.32;;;27.00;67.50;;;;;;4966359;29;20024;-42
2022/02/21 08:44:00;;;;;;;8.55;5.63;;;27.00;67.60;;;;;;4966596;29;20027;-44
2022/02/21 08:46:27;;;;;;;11.40;5.65;;;27.00;67.70;;;;;;4966933;29;20038;-40
2022/02/21 08:48:54;;;;;;;10.35;6.10;;;27.00;67.50;;;;;;4966339;29;20239;-43
2022/02/21 08:51:25;;;;;;;9.38;6.32;;;27.00;67.50;;;;;;4966882;29;20030;-42
2022/02/21 08:53:51;;;;;;;8.13;5.60;;;27.00;67.60;;;;;;4965942;29;20035;-41
2022/02/21 08:56:18;;;;;;;10.13;6.28;;;27.00;67.60;;;;;;4966554;29;20039;-41
2022/02/21 08:58:45;;;;;;;11.50;5.70;;;27.00;67.50;;;;;;4966038;29;20038;-40
2022/02/21 09:01:11;;;;;;;8.02;5.40;;;27.00;67.40;;;;;;4965968;29;20055;-43
2022/02/21 09:03:38;;;;;;;10.32;5.50;;;27.00;67.30;;;;;;4966174;29;20023;-40
2022/02/21 09:06:07;;;;;;;20.85;5.95;;;27.00;67.20;;;;;;4966421;29;20098;-40
2022/02/21 09:08:33;;;;;;;9.57;4.85;;;27.00;67.20;;;;;;4966221;29;20035;-41
2022/02/21 09:11:01;;;;;;;8.48;5.00;;;27.00;67.10;;;;;;4966603;29;20042;-40
2022/02/21 09:13:28;;;;;;;10.43;5.47;;;27.00;67.00;;;;;;4969632;28;20046;-40
2022/02/21 09:15:55;;;;;;;11.07;5.82;;;27.00;66.90;;;;;;4970103;29;20283;-39
2022/02/21 09:18:21;;;;;;;10.60;5.53;;;27.00;67.00;;;;;;4970018;29;20039;-43
2022/02/21 09:20:48;;;;;;;12.10;5.50;;;26.90;66.90;;;;;;4969982;29;20026;-43
2022/02/21 09:23:15;;;;;;;11.75;5.38;;;26.90;66.90;;;;;;4969175;29;20023;-40
2022/02/21 09:25:41;;;;;;;10.02;5.45;;;26.90;67.00;;;;;;4969624;29;20090;-44
2022/02/21 09:28:09;;;;;;;16.25;6.03;;;26.90;66.90;;;;;;4969985;29;20074;-40
2022/02/21 09:30:36;;;;;;;15.88;5.85;;;26.90;67.10;;;;;;4969624;29;20035;-51
2022/02/21 09:33:03;;;;;;;15.43;5.97;;;26.90;67.20;;;;;;4969690;29;20023;-39
2022/02/21 09:35:29;;;;;;;9.43;5.95;;;26.90;67.20;;;;;;4970075;29;20279;-40
2022/02/21 09:37:58;;;;;;;15.27;5.90;;;26.90;67.30;;;;;;4969421;29;20039;-44
2022/02/21 09:40:25;;;;;;;14.40;5.65;;;26.90;67.30;;;;;;4969218;29;20030;-40
2022/02/21 09:42:53;;;;;;;10.90;5.55;;;26.90;67.50;;;;;;4969253;29;20031;-41
2022/02/21 09:45:20;;;;;;;14.45;6.05;;;26.90;67.50;;;;;;4969625;29;20098;-43
2022/02/21 09:47:50;;;;;;;11.55;5.50;;;26.90;67.50;;;;;;4969333;29;20079;-44
2022/02/21 09:50:16;;;;;;;13.95;5.63;;;26.90;67.50;;;;;;4969533;29;20244;-41
2022/02/21 09:52:43;;;;;;;12.48;6.55;;;26.90;67.80;;;;;;4969420;29;20094;-41
2022/02/21 09:55:10;;;;;;;10.32;5.72;;;26.90;67.50;;;;;;4969502;29;20035;-42
2022/02/21 09:57:36;;;;;;;11.35;5.57;;;26.90;67.70;;;;;;4969237;29;20047;-41
2022/02/21 10:00:05;;;;;;;11.52;5.78;;;26.90;67.70;;;;;;4968914;29;20031;-43
2022/02/21 10:02:33;;;;;;;11.88;6.07;;;26.90;67.80;;;;;;4968398;29;20102;-41
2022/02/21 10:05:22;;;;;;;11.00;6.05;;;26.90;67.90;;;;;;4969165;29;20030;-44
2022/02/21 10:07:49;;;;;;;10.38;5.93;;;26.90;68.10;;;;;;4969121;29;20039;-43
2022/02/21 10:10:19;;;;;;;9.75;5.90;;;26.90;68.10;;;;;;4969217;29;20027;-40
2022/02/21 10:12:51;;;;;;;7.93;5.95;;;26.90;68.10;;;;;;4968906;29;20031;-41
2022/02/21 10:15:23;;;;;;;25.55;6.90;;;26.80;68.30;;;;;;4969087;29;20086;-43
2022/02/21 10:17:51;;;;;;;29.10;6.70;;;26.80;68.50;;;;;;4968462;29;20361;-40
2022/02/21 10:20:20;;;;;;;57.28;9.60;;;26.80;68.70;;;;;;4968910;29;20207;-41
2022/02/21 10:23:05;;;;;;;60.10;9.93;;;26.80;68.80;;;;;;4968195;29;20424;-40
2022/02/21 10:25:32;;;;;;;20.67;7.35;;;26.80;69.10;;;;;;4968529;29;20164;-45
2022/02/21 10:27:59;;;;;;;22.65;6.88;;;26.80;69.00;;;;;;4968209;29;20043;-48
2022/02/21 10:30:27;;;;;;;14.68;6.55;;;26.80;69.40;;;;;;4968705;29;20027;-41
2022/02/21 10:32:54;;;;;;;13.48;6.20;;;26.70;69.70;;;;;;4968504;29;20086;-39
2022/02/21 10:35:23;;;;;;;20.33;6.93;;;26.80;69.80;;;;;;4968086;29;20039;-40
2022/02/21 10:37:54;;;;;;;15.15;6.47;;;26.80;69.80;;;;;;4968225;29;20023;-43
2022/02/21 10:40:36;;;;;;;11.57;6.07;;;26.80;69.80;;;;;;4968769;29;20033;-43
2022/02/21 10:43:17;;;;;;;12.40;7.00;;;26.80;69.70;;;;;;4951064;29;20311;-43
2022/02/21 10:45:45;;;;;;;12.77;6.63;;;26.80;69.60;;;;;;4968136;29;20043;-41
2022/02/21 10:48:20;;;;;;;14.65;6.82;;;26.80;69.70;;;;;;4968091;29;20054;-42
2022/02/21 10:51:00;;;;;;;11.85;6.88;;;26.80;69.70;;;;;;4967763;29;20028;-41
2022/02/21 10:53:44;;;;;;;13.65;6.60;;;26.80;69.60;;;;;;4967806;29;20049;-42
2022/02/21 10:56:13;;;;;;;12.43;6.85;;;26.80;69.40;;;;;;4967970;28;20031;-47
2022/02/21 10:58:40;;;;;;;13.63;6.93;;;26.80;69.40;;;;;;4967560;29;20027;-43
2022/02/21 11:01:09;;;;;;;14.50;6.35;;;26.80;69.30;;;;;;4967630;29;20219;-41
2022/02/21 11:03:36;;;;;;;10.60;6.68;;;26.80;69.00;;;;;;4966439;29;20031;-46
2022/02/21 11:06:05;;;;;;;11.13;6.03;;;26.70;68.20;;;;;;4967588;29;20070;-43
2022/02/21 11:08:32;;;;;;;16.02;6.53;;;26.70;67.70;;;;;;4966944;29;20327;-39
2022/02/21 11:11:01;;;;;;;16.45;6.57;;;26.70;67.80;;;;;;4967442;29;20327;-40
2022/02/21 11:13:36;;;;;;;76.32;10.27;;;26.80;67.60;;;;;;4966995;29;20357;-42
2022/02/21 11:16:04;;;;;;;60.15;11.68;;;26.80;67.80;;;;;;4967249;29;20065;-43
2022/02/21 11:18:33;;;;;;;90.53;14.95;;;26.70;67.40;;;;;;4967112;29;20256;-39
2022/02/21 11:21:00;;;;;;;80.20;15.95;;;26.80;67.60;;;;;;4967121;29;20279;-38
2022/02/21 11:23:27;;;;;;;73.85;14.40;;;26.70;68.10;;;;;;4966086;29;20314;-46
2022/02/21 11:26:04;;;;;;;64.57;13.05;;;26.70;68.30;;;;;;4966859;29;20094;-36
2022/02/21 11:28:52;;;;;;;77.35;13.98;;;26.70;68.30;;;;;;4966900;29;20027;-40
2022/02/21 11:31:41;;;;;;;58.28;13.52;;;26.70;68.30;;;;;;4967728;29;20053;-46
2022/02/21 11:34:10;;;;;;;53.00;13.30;;;26.70;68.50;;;;;;4967366;29;20031;-44
2022/02/21 11:36:49;;;;;;;45.65;12.30;;;26.70;68.80;;;;;;4965050;28;20035;-42
2022/02/21 11:39:26;;;;;;;34.60;10.95;;;26.70;68.70;;;;;;4965214;29;20176;-43
2022/02/21 11:42:25;;;;;;;171.65;13.50;;;26.60;68.80;;;;;;4965044;29;20039;-43
2022/02/21 11:44:54;;;;;;;45.45;9.65;;;26.60;69.10;;;;;;4947470;29;20039;-44
2022/02/21 11:47:47;;;;;;;27.77;8.52;;;26.70;69.40;;;;;;4964743;29;20045;-46
2022/02/21 11:50:24;;;;;;;;;;;26.70;69.20;;;;;;4965069;29;20111;-44
2022/02/21 11:52:54;;;;;;;26.00;7.60;;;26.60;70.00;;;;;;4966972;29;20003;-46
2022/02/21 11:55:30;;;;;;;26.23;7.50;;;26.60;69.70;;;;;;4966732;29;20061;-41
2022/02/21 11:58:22;;;;;;;28.52;7.60;;;26.60;69.70;;;;;;4966467;29;20071;-42
2022/02/21 12:00:54;;;;;;;29.88;8.02;;;26.60;69.80;;;;;;4966590;29;20087;-45
2022/02/21 12:03:26;;;;;;;31.63;8.23;;;26.60;69.90;;;;;;4966236;29;20041;-39
2022/02/21 12:05:59;;;;;;;28.10;7.75;;;26.60;70.80;;;;;;4966604;29;20023;-44
2022/02/21 12:08:31;;;;;;;22.17;8.35;;;26.60;70.00;;;;;;4966229;29;20102;-46
2022/02/21 12:11:04;;;;;;;19.65;7.65;;;26.60;70.00;;;;;;4966867;29;20086;-42
2022/02/21 12:13:31;;;;;;;61.05;11.77;;;26.60;69.80;;;;;;4966508;29;20049;-40
2022/02/21 12:16:09;;;;;;;23.92;7.50;;;26.60;69.90;;;;;;4966595;29;20019;-42
2022/02/21 12:18:38;;;;;;;20.02;7.20;;;26.60;69.70;;;;;;4966250;29;20400;-41
2022/02/21 12:21:18;;;;;;;22.13;7.22;;;26.60;69.70;;;;;;4966331;29;20030;-42
2022/02/21 12:23:59;;;;;;;20.65;7.85;;;26.60;69.80;;;;;;4966380;29;20043;-43
2022/02/21 12:26:26;;;;;;;17.40;7.00;;;26.60;70.00;;;;;;4966575;29;20019;-42
2022/02/21 12:29:16;;;;;;;16.05;6.95;;;26.60;69.70;;;;;;4966446;29;20063;-43
2022/02/21 12:32:03;;;;;;;38.42;8.18;;;26.60;69.80;;;;;;4966531;29;20095;-50
2022/02/21 12:34:32;;;;;;;38.33;9.65;;;26.60;69.80;;;;;;4966122;29;20046;-46
2022/02/21 12:36:59;;;;;;;26.55;9.32;;;26.60;69.90;;;;;;4966100;29;20027;-43
2022/02/21 12:39:30;;;;;;;25.75;9.50;;;26.60;69.70;;;;;;4965927;29;20058;-39